sensor_id;sensor_type;location;lat;lon;timestamp;P1;durP1;ratioP1;P2;durP2;ratioP2
28068;SDS011;15382;47.578;8.086;2022-09-28T00:08:10;4.93;;;0.90;;
28068;SDS011;15382;47.578;8.086;2022-09-28T00:18:12;5.25;;;0.98;;
28068;SDS011;15382;47.578;8.086;2022-09-28T00:28:13;3.37;;;0.87;;
28068;SDS011;15382;47.578;8.086;2022-09-28T00:38:13;6.43;;;1.40;;
28068;SDS011;15382;47.578;8.086;2022-09-28T00:48:15;4.97;;;1.50;;
28068;SDS011;15382;47.578;8.086;2022-09-28T00:58:20;4.07;;;1.57;;
28068;SDS011;15382;47.578;8.086;2022-09-28T01:08:27;5.45;;;1.30;;
28068;SDS011;15382;47.578;8.086;2022-09-28T01:28:52;3.47;;;1.35;;
28068;SDS011;15382;47.578;8.086;2022-09-28T01:39:23;4.97;;;1.92;;
28068;SDS011;15382;47.578;8.086;2022-09-28T01:49:36;4.30;;;1.63;;
28068;SDS011;15382;47.578;8.086;2022-09-28T01:59:51;4.03;;;1.58;;
28068;SDS011;15382;47.578;8.086;2022-09-28T02:10:02;9.25;;;1.58;;
28068;SDS011;15382;47.578;8.086;2022-09-28T02:20:12;2.33;;;1.27;;
28068;SDS011;15382;47.578;8.086;2022-09-28T02:30:14;4.57;;;1.00;;
28068;SDS011;15382;47.578;8.086;2022-09-28T02:40:18;2.85;;;0.88;;
28068;SDS011;15382;47.578;8.086;2022-09-28T02:50:29;2.35;;;0.90;;
28068;SDS011;15382;47.578;8.086;2022-09-28T03:00:35;2.22;;;1.02;;
28068;SDS011;15382;47.578;8.086;2022-09-28T03:10:45;1.53;;;1.20;;
28068;SDS011;15382;47.578;8.086;2022-09-28T03:21:14;1.58;;;1.20;;
28068;SDS011;15382;47.578;8.086;2022-09-28T03:31:15;2.33;;;1.33;;
28068;SDS011;15382;47.578;8.086;2022-09-28T03:41:16;2.23;;;1.17;;
28068;SDS011;15382;47.578;8.086;2022-09-28T03:51:17;1.88;;;1.35;;
28068;SDS011;15382;47.578;8.086;2022-09-28T04:01:18;1.87;;;1.10;;
28068;SDS011;15382;47.578;8.086;2022-09-28T04:11:20;3.65;;;1.30;;
28068;SDS011;15382;47.578;8.086;2022-09-28T04:21:21;3.70;;;2.03;;
28068;SDS011;15382;47.578;8.086;2022-09-28T04:31:27;3.40;;;2.30;;
28068;SDS011;15382;47.578;8.086;2022-09-28T04:41:29;3.42;;;1.50;;
28068;SDS011;15382;47.578;8.086;2022-09-28T04:51:30;1.63;;;1.30;;
28068;SDS011;15382;47.578;8.086;2022-09-28T05:01:32;2.95;;;1.50;;
28068;SDS011;15382;47.578;8.086;2022-09-28T05:11:32;2.37;;;1.67;;
28068;SDS011;15382;47.578;8.086;2022-09-28T05:21:34;5.43;;;2.67;;
28068;SDS011;15382;47.578;8.086;2022-09-28T05:31:35;5.43;;;2.53;;
28068;SDS011;15382;47.578;8.086;2022-09-28T05:41:46;6.75;;;2.95;;
28068;SDS011;15382;47.578;8.086;2022-09-28T05:51:47;5.63;;;2.83;;
28068;SDS011;15382;47.578;8.086;2022-09-28T06:01:48;8.77;;;3.33;;
28068;SDS011;15382;47.578;8.086;2022-09-28T06:11:49;36.40;;;5.67;;
28068;SDS011;15382;47.578;8.086;2022-09-28T06:21:56;8.20;;;4.93;;
28068;SDS011;15382;47.578;8.086;2022-09-28T06:31:58;9.63;;;4.95;;
28068;SDS011;15382;47.578;8.086;2022-09-28T06:41:59;6.67;;;4.30;;
28068;SDS011;15382;47.578;8.086;2022-09-28T06:52:12;6.57;;;3.25;;
28068;SDS011;15382;47.578;8.086;2022-09-28T07:02:31;5.53;;;2.67;;
28068;SDS011;15382;47.578;8.086;2022-09-28T07:12:50;4.63;;;2.70;;
28068;SDS011;15382;47.578;8.086;2022-09-28T07:23:06;13.13;;;4.55;;
28068;SDS011;15382;47.578;8.086;2022-09-28T07:33:27;10.15;;;4.43;;
28068;SDS011;15382;47.578;8.086;2022-09-28T07:43:47;8.38;;;3.20;;
28068;SDS011;15382;47.578;8.086;2022-09-28T07:53:49;6.60;;;3.88;;
28068;SDS011;15382;47.578;8.086;2022-09-28T08:03:53;12.93;;;5.78;;
28068;SDS011;15382;47.578;8.086;2022-09-28T08:13:56;11.32;;;4.72;;
28068;SDS011;15382;47.578;8.086;2022-09-28T08:24:26;8.25;;;3.72;;
28068;SDS011;15382;47.578;8.086;2022-09-28T08:34:30;8.50;;;2.42;;
28068;SDS011;15382;47.578;8.086;2022-09-28T08:44:49;5.30;;;1.73;;
28068;SDS011;15382;47.578;8.086;2022-09-28T09:05:54;6.25;;;2.25;;
28068;SDS011;15382;47.578;8.086;2022-09-28T09:59:17;2.38;;;0.93;;
28068;SDS011;15382;47.578;8.086;2022-09-28T10:09:42;3.67;;;1.10;;
28068;SDS011;15382;47.578;8.086;2022-09-28T10:19:55;7.07;;;2.65;;
28068;SDS011;15382;47.578;8.086;2022-09-28T10:30:16;5.55;;;1.70;;
28068;SDS011;15382;47.578;8.086;2022-09-28T10:40:45;5.80;;;1.45;;
28068;SDS011;15382;47.578;8.086;2022-09-28T10:50:56;3.60;;;1.13;;
28068;SDS011;15382;47.578;8.086;2022-09-28T11:01:11;1.10;;;0.40;;
28068;SDS011;15382;47.578;8.086;2022-09-28T11:11:16;4.82;;;1.02;;
28068;SDS011;15382;47.578;8.086;2022-09-28T11:21:28;0.85;;;0.40;;
28068;SDS011;15382;47.578;8.086;2022-09-28T11:31:36;4.82;;;0.80;;
28068;SDS011;15382;47.578;8.086;2022-09-28T11:51:51;2.63;;;1.92;;
28068;SDS011;15382;47.578;8.086;2022-09-28T12:01:57;2.40;;;1.08;;
28068;SDS011;15382;47.578;8.086;2022-09-28T12:22:47;4.93;;;1.45;;
28068;SDS011;15382;47.578;8.086;2022-09-28T12:33:27;2.67;;;1.17;;
28068;SDS011;15382;47.578;8.086;2022-09-28T12:43:31;10.00;;;2.80;;
28068;SDS011;15382;47.578;8.086;2022-09-28T13:24:35;4.03;;;1.87;;
28068;SDS011;15382;47.578;8.086;2022-09-28T13:34:40;6.88;;;2.45;;
28068;SDS011;15382;47.578;8.086;2022-09-28T14:15:45;2.28;;;1.52;;
28068;SDS011;15382;47.578;8.086;2022-09-28T14:26:14;3.87;;;1.40;;
28068;SDS011;15382;47.578;8.086;2022-09-28T14:47:23;8.60;;;2.15;;
28068;SDS011;15382;47.578;8.086;2022-09-28T14:57:32;7.60;;;2.15;;
28068;SDS011;15382;47.578;8.086;2022-09-28T15:07:43;5.33;;;2.20;;
28068;SDS011;15382;47.578;8.086;2022-09-28T15:17:47;6.57;;;3.08;;
28068;SDS011;15382;47.578;8.086;2022-09-28T15:27:57;5.13;;;1.95;;
28068;SDS011;15382;47.578;8.086;2022-09-28T15:38:01;3.00;;;1.52;;
28068;SDS011;15382;47.578;8.086;2022-09-28T15:59:07;3.90;;;2.10;;
28068;SDS011;15382;47.578;8.086;2022-09-28T16:09:30;11.02;;;2.97;;
28068;SDS011;15382;47.578;8.086;2022-09-28T16:19:36;4.93;;;2.47;;
28068;SDS011;15382;47.578;8.086;2022-09-28T16:29:38;5.60;;;2.10;;
28068;SDS011;15382;47.578;8.086;2022-09-28T16:39:41;4.65;;;1.60;;
28068;SDS011;15382;47.578;8.086;2022-09-28T16:49:41;6.33;;;2.20;;
28068;SDS011;15382;47.578;8.086;2022-09-28T16:59:42;6.13;;;2.30;;
28068;SDS011;15382;47.578;8.086;2022-09-28T17:09:43;10.00;;;3.43;;
28068;SDS011;15382;47.578;8.086;2022-09-28T17:19:44;6.20;;;3.43;;
28068;SDS011;15382;47.578;8.086;2022-09-28T17:29:45;7.53;;;4.33;;
28068;SDS011;15382;47.578;8.086;2022-09-28T17:39:45;7.27;;;3.23;;
28068;SDS011;15382;47.578;8.086;2022-09-28T17:49:46;15.23;;;5.50;;
28068;SDS011;15382;47.578;8.086;2022-09-28T17:59:48;6.93;;;2.85;;
28068;SDS011;15382;47.578;8.086;2022-09-28T18:09:51;10.32;;;2.50;;
28068;SDS011;15382;47.578;8.086;2022-09-28T18:19:55;13.23;;;7.15;;
28068;SDS011;15382;47.578;8.086;2022-09-28T18:29:56;16.33;;;8.33;;
28068;SDS011;15382;47.578;8.086;2022-09-28T18:39:57;12.40;;;4.20;;
28068;SDS011;15382;47.578;8.086;2022-09-28T18:49:58;6.20;;;2.37;;
28068;SDS011;15382;47.578;8.086;2022-09-28T18:59:59;7.47;;;3.60;;
28068;SDS011;15382;47.578;8.086;2022-09-28T19:10:00;5.28;;;3.25;;
28068;SDS011;15382;47.578;8.086;2022-09-28T19:20:01;8.37;;;3.60;;
28068;SDS011;15382;47.578;8.086;2022-09-28T19:30:02;6.32;;;3.47;;
28068;SDS011;15382;47.578;8.086;2022-09-28T19:40:04;8.73;;;3.88;;
28068;SDS011;15382;47.578;8.086;2022-09-28T20:00:06;7.93;;;4.68;;
28068;SDS011;15382;47.578;8.086;2022-09-28T20:10:08;7.63;;;3.50;;
28068;SDS011;15382;47.578;8.086;2022-09-28T20:20:11;10.60;;;4.32;;
28068;SDS011;15382;47.578;8.086;2022-09-28T20:30:11;7.83;;;4.67;;
28068;SDS011;15382;47.578;8.086;2022-09-28T20:50:13;11.63;;;6.57;;
28068;SDS011;15382;47.578;8.086;2022-09-28T21:00:14;10.20;;;6.27;;
28068;SDS011;15382;47.578;8.086;2022-09-28T21:10:15;13.83;;;6.53;;
28068;SDS011;15382;47.578;8.086;2022-09-28T21:20:16;11.40;;;5.97;;
28068;SDS011;15382;47.578;8.086;2022-09-28T21:30:17;9.47;;;5.73;;
28068;SDS011;15382;47.578;8.086;2022-09-28T21:40:19;8.13;;;4.88;;
28068;SDS011;15382;47.578;8.086;2022-09-28T21:50:23;9.30;;;5.45;;
28068;SDS011;15382;47.578;8.086;2022-09-28T22:00:25;9.52;;;4.93;;
28068;SDS011;15382;47.578;8.086;2022-09-28T22:10:26;6.97;;;4.67;;
28068;SDS011;15382;47.578;8.086;2022-09-28T22:20:27;9.97;;;5.40;;
28068;SDS011;15382;47.578;8.086;2022-09-28T22:30:27;13.97;;;7.10;;
28068;SDS011;15382;47.578;8.086;2022-09-28T22:40:28;14.13;;;6.27;;
28068;SDS011;15382;47.578;8.086;2022-09-28T22:50:29;10.03;;;6.87;;
28068;SDS011;15382;47.578;8.086;2022-09-28T23:00:30;17.00;;;9.32;;
28068;SDS011;15382;47.578;8.086;2022-09-28T23:10:31;18.17;;;9.47;;
28068;SDS011;15382;47.578;8.086;2022-09-28T23:20:32;19.43;;;9.93;;
28068;SDS011;15382;47.578;8.086;2022-09-28T23:30:33;19.00;;;9.77;;
28068;SDS011;15382;47.578;8.086;2022-09-28T23:40:33;17.63;;;8.53;;
28068;SDS011;15382;47.578;8.086;2022-09-28T23:50:34;17.23;;;8.70;;
